sensor_id;sensor_type;location;lat;lon;timestamp;temperature;humidity
15341;DHT22;7770;52.158;5.372;2023-07-22T00:01:17;13.60;99.90
15341;DHT22;7770;52.158;5.372;2023-07-22T00:04:03;13.60;99.90
15341;DHT22;7770;52.158;5.372;2023-07-22T00:06:50;13.60;99.90
15341;DHT22;7770;52.158;5.372;2023-07-22T00:09:36;13.60;99.90
15341;DHT22;7770;52.158;5.372;2023-07-22T00:12:22;13.70;99.90
15341;DHT22;7770;52.158;5.372;2023-07-22T00:15:11;13.70;99.90
15341;DHT22;7770;52.158;5.372;2023-07-22T00:17:57;13.70;99.90
15341;DHT22;7770;52.158;5.372;2023-07-22T00:20:43;13.60;99.90
15341;DHT22;7770;52.158;5.372;2023-07-22T00:23:29;13.60;99.90
15341;DHT22;7770;52.158;5.372;2023-07-22T00:26:15;13.50;99.90
15341;DHT22;7770;52.158;5.372;2023-07-22T00:29:02;13.50;99.90
15341;DHT22;7770;52.158;5.372;2023-07-22T00:31:48;13.50;99.90
15341;DHT22;7770;52.158;5.372;2023-07-22T00:34:35;13.50;99.90
15341;DHT22;7770;52.158;5.372;2023-07-22T00:37:22;13.50;99.90
15341;DHT22;7770;52.158;5.372;2023-07-22T00:40:08;13.50;99.90
15341;DHT22;7770;52.158;5.372;2023-07-22T00:42:57;13.50;99.90
15341;DHT22;7770;52.158;5.372;2023-07-22T00:45:44;13.50;99.90
15341;DHT22;7770;52.158;5.372;2023-07-22T00:48:31;13.50;99.90
15341;DHT22;7770;52.158;5.372;2023-07-22T00:51:18;13.60;99.90
15341;DHT22;7770;52.158;5.372;2023-07-22T00:54:05;13.50;99.90
15341;DHT22;7770;52.158;5.372;2023-07-22T00:56:51;13.50;99.90
15341;DHT22;7770;52.158;5.372;2023-07-22T00:59:39;13.50;99.90
15341;DHT22;7770;52.158;5.372;2023-07-22T01:02:26;13.50;99.90
15341;DHT22;7770;52.158;5.372;2023-07-22T01:05:12;13.50;99.90
15341;DHT22;7770;52.158;5.372;2023-07-22T01:07:58;13.60;99.90
15341;DHT22;7770;52.158;5.372;2023-07-22T01:10:44;13.60;99.90
15341;DHT22;7770;52.158;5.372;2023-07-22T01:13:30;13.70;99.90
15341;DHT22;7770;52.158;5.372;2023-07-22T01:16:16;13.70;99.90
15341;DHT22;7770;52.158;5.372;2023-07-22T01:19:03;13.80;99.90
15341;DHT22;7770;52.158;5.372;2023-07-22T01:21:50;13.80;99.90
15341;DHT22;7770;52.158;5.372;2023-07-22T01:24:38;13.80;99.90
15341;DHT22;7770;52.158;5.372;2023-07-22T01:27:24;13.80;99.90
15341;DHT22;7770;52.158;5.372;2023-07-22T01:30:10;13.80;99.90
15341;DHT22;7770;52.158;5.372;2023-07-22T01:32:56;13.80;99.90
15341;DHT22;7770;52.158;5.372;2023-07-22T01:35:42;13.70;99.90
15341;DHT22;7770;52.158;5.372;2023-07-22T01:38:28;13.80;99.90
15341;DHT22;7770;52.158;5.372;2023-07-22T01:41:14;13.70;99.90
15341;DHT22;7770;52.158;5.372;2023-07-22T01:44:00;13.70;99.90
15341;DHT22;7770;52.158;5.372;2023-07-22T01:46:46;13.70;99.90
15341;DHT22;7770;52.158;5.372;2023-07-22T01:49:32;13.60;99.90
15341;DHT22;7770;52.158;5.372;2023-07-22T01:52:19;13.60;99.90
15341;DHT22;7770;52.158;5.372;2023-07-22T01:55:06;13.50;99.90
15341;DHT22;7770;52.158;5.372;2023-07-22T01:57:56;13.60;99.90
15341;DHT22;7770;52.158;5.372;2023-07-22T02:00:42;13.50;99.90
15341;DHT22;7770;52.158;5.372;2023-07-22T02:03:28;13.50;99.90
15341;DHT22;7770;52.158;5.372;2023-07-22T02:06:14;13.50;99.90
15341;DHT22;7770;52.158;5.372;2023-07-22T02:09:01;13.50;99.90
15341;DHT22;7770;52.158;5.372;2023-07-22T02:11:53;13.50;99.90
15341;DHT22;7770;52.158;5.372;2023-07-22T02:14:39;13.50;99.90
15341;DHT22;7770;52.158;5.372;2023-07-22T02:17:25;13.50;99.90
15341;DHT22;7770;52.158;5.372;2023-07-22T02:20:11;13.70;99.90
15341;DHT22;7770;52.158;5.372;2023-07-22T02:22:58;13.70;99.90
15341;DHT22;7770;52.158;5.372;2023-07-22T02:25:44;13.80;99.90
15341;DHT22;7770;52.158;5.372;2023-07-22T02:28:34;13.80;99.90
15341;DHT22;7770;52.158;5.372;2023-07-22T02:31:20;13.90;99.90
15341;DHT22;7770;52.158;5.372;2023-07-22T02:34:08;13.80;99.90
15341;DHT22;7770;52.158;5.372;2023-07-22T02:36:54;13.80;99.90
15341;DHT22;7770;52.158;5.372;2023-07-22T02:39:40;13.80;99.90
15341;DHT22;7770;52.158;5.372;2023-07-22T02:42:26;13.80;99.90
15341;DHT22;7770;52.158;5.372;2023-07-22T02:45:12;13.80;99.90
15341;DHT22;7770;52.158;5.372;2023-07-22T02:47:58;13.70;99.90
15341;DHT22;7770;52.158;5.372;2023-07-22T02:50:44;13.70;99.90
15341;DHT22;7770;52.158;5.372;2023-07-22T02:53:30;13.70;99.90
15341;DHT22;7770;52.158;5.372;2023-07-22T02:56:16;13.60;99.90
15341;DHT22;7770;52.158;5.372;2023-07-22T02:59:02;13.70;99.90
15341;DHT22;7770;52.158;5.372;2023-07-22T03:01:48;13.70;99.90
15341;DHT22;7770;52.158;5.372;2023-07-22T03:04:34;13.60;99.90
15341;DHT22;7770;52.158;5.372;2023-07-22T03:07:20;13.60;99.90
15341;DHT22;7770;52.158;5.372;2023-07-22T03:10:07;13.60;99.90
15341;DHT22;7770;52.158;5.372;2023-07-22T03:12:53;13.70;99.90
15341;DHT22;7770;52.158;5.372;2023-07-22T03:15:41;13.70;99.90
15341;DHT22;7770;52.158;5.372;2023-07-22T03:18:27;13.70;99.90
15341;DHT22;7770;52.158;5.372;2023-07-22T03:21:13;13.70;99.90
15341;DHT22;7770;52.158;5.372;2023-07-22T03:23:59;13.70;99.90
15341;DHT22;7770;52.158;5.372;2023-07-22T03:26:45;13.70;99.90
15341;DHT22;7770;52.158;5.372;2023-07-22T03:29:31;13.70;99.90
15341;DHT22;7770;52.158;5.372;2023-07-22T03:32:18;13.70;99.90
15341;DHT22;7770;52.158;5.372;2023-07-22T03:35:04;13.70;99.90
15341;DHT22;7770;52.158;5.372;2023-07-22T03:37:50;13.70;99.90
15341;DHT22;7770;52.158;5.372;2023-07-22T03:40:36;13.70;99.90
15341;DHT22;7770;52.158;5.372;2023-07-22T03:43:23;13.70;99.90
15341;DHT22;7770;52.158;5.372;2023-07-22T03:46:09;13.70;99.90
15341;DHT22;7770;52.158;5.372;2023-07-22T03:48:55;13.60;99.90
15341;DHT22;7770;52.158;5.372;2023-07-22T03:51:41;13.70;99.90
15341;DHT22;7770;52.158;5.372;2023-07-22T03:54:27;13.70;99.90
15341;DHT22;7770;52.158;5.372;2023-07-22T03:57:13;13.70;99.90
15341;DHT22;7770;52.158;5.372;2023-07-22T03:59:59;13.70;99.90
15341;DHT22;7770;52.158;5.372;2023-07-22T04:02:45;13.70;99.90
15341;DHT22;7770;52.158;5.372;2023-07-22T04:05:32;13.80;99.90
15341;DHT22;7770;52.158;5.372;2023-07-22T04:08:18;13.80;99.90
15341;DHT22;7770;52.158;5.372;2023-07-22T04:11:04;13.80;99.90
15341;DHT22;7770;52.158;5.372;2023-07-22T04:13:50;13.90;99.90
15341;DHT22;7770;52.158;5.372;2023-07-22T04:16:36;13.90;99.90
15341;DHT22;7770;52.158;5.372;2023-07-22T04:19:22;14.00;99.90
15341;DHT22;7770;52.158;5.372;2023-07-22T04:22:08;14.00;99.90
15341;DHT22;7770;52.158;5.372;2023-07-22T04:24:54;14.10;99.90
15341;DHT22;7770;52.158;5.372;2023-07-22T04:27:40;14.20;99.90
15341;DHT22;7770;52.158;5.372;2023-07-22T04:30:26;14.20;99.90
15341;DHT22;7770;52.158;5.372;2023-07-22T04:33:12;14.30;99.90
15341;DHT22;7770;52.158;5.372;2023-07-22T04:35:59;14.40;99.90
15341;DHT22;7770;52.158;5.372;2023-07-22T04:38:46;14.50;99.90
15341;DHT22;7770;52.158;5.372;2023-07-22T04:41:33;14.50;99.90
15341;DHT22;7770;52.158;5.372;2023-07-22T04:44:19;14.60;99.90
15341;DHT22;7770;52.158;5.372;2023-07-22T04:47:05;14.60;99.90
15341;DHT22;7770;52.158;5.372;2023-07-22T04:49:51;14.70;99.90
15341;DHT22;7770;52.158;5.372;2023-07-22T04:52:37;14.80;99.90
15341;DHT22;7770;52.158;5.372;2023-07-22T04:55:23;14.90;99.90
15341;DHT22;7770;52.158;5.372;2023-07-22T04:58:09;15.00;99.90
15341;DHT22;7770;52.158;5.372;2023-07-22T05:00:58;15.00;99.90
15341;DHT22;7770;52.158;5.372;2023-07-22T05:03:44;15.10;99.90
15341;DHT22;7770;52.158;5.372;2023-07-22T05:06:30;15.10;99.90
15341;DHT22;7770;52.158;5.372;2023-07-22T05:09:16;15.20;99.90
15341;DHT22;7770;52.158;5.372;2023-07-22T05:12:02;15.30;99.90
15341;DHT22;7770;52.158;5.372;2023-07-22T05:14:49;15.30;99.90
15341;DHT22;7770;52.158;5.372;2023-07-22T05:17:35;15.40;99.90
15341;DHT22;7770;52.158;5.372;2023-07-22T05:20:21;15.50;99.90
15341;DHT22;7770;52.158;5.372;2023-07-22T05:23:07;15.60;99.90
15341;DHT22;7770;52.158;5.372;2023-07-22T05:25:53;15.70;99.90
15341;DHT22;7770;52.158;5.372;2023-07-22T05:28:39;15.70;99.90
15341;DHT22;7770;52.158;5.372;2023-07-22T05:31:25;15.70;99.90
15341;DHT22;7770;52.158;5.372;2023-07-22T05:34:12;15.70;99.90
15341;DHT22;7770;52.158;5.372;2023-07-22T05:36:58;15.70;99.90
15341;DHT22;7770;52.158;5.372;2023-07-22T05:39:44;15.70;99.90
15341;DHT22;7770;52.158;5.372;2023-07-22T05:42:30;15.80;99.90
15341;DHT22;7770;52.158;5.372;2023-07-22T05:45:16;15.80;99.90
15341;DHT22;7770;52.158;5.372;2023-07-22T05:48:02;15.90;99.90
15341;DHT22;7770;52.158;5.372;2023-07-22T05:50:48;15.80;99.90
15341;DHT22;7770;52.158;5.372;2023-07-22T05:53:34;15.90;99.90
15341;DHT22;7770;52.158;5.372;2023-07-22T05:56:20;15.90;99.90
15341;DHT22;7770;52.158;5.372;2023-07-22T05:59:07;16.00;99.90
15341;DHT22;7770;52.158;5.372;2023-07-22T06:01:53;16.10;99.90
15341;DHT22;7770;52.158;5.372;2023-07-22T06:04:39;16.30;99.90
15341;DHT22;7770;52.158;5.372;2023-07-22T06:07:25;16.30;99.90
15341;DHT22;7770;52.158;5.372;2023-07-22T06:10:11;16.40;99.90
15341;DHT22;7770;52.158;5.372;2023-07-22T06:12:57;16.60;99.90
15341;DHT22;7770;52.158;5.372;2023-07-22T06:15:43;16.80;99.90
15341;DHT22;7770;52.158;5.372;2023-07-22T06:18:29;16.90;99.90
15341;DHT22;7770;52.158;5.372;2023-07-22T06:21:15;16.90;99.90
15341;DHT22;7770;52.158;5.372;2023-07-22T06:24:01;17.00;99.90
15341;DHT22;7770;52.158;5.372;2023-07-22T06:26:47;17.20;99.90
15341;DHT22;7770;52.158;5.372;2023-07-22T06:29:33;17.50;99.90
15341;DHT22;7770;52.158;5.372;2023-07-22T06:32:19;17.70;99.90
15341;DHT22;7770;52.158;5.372;2023-07-22T06:35:05;17.70;99.90
15341;DHT22;7770;52.158;5.372;2023-07-22T06:37:52;18.00;99.90
15341;DHT22;7770;52.158;5.372;2023-07-22T06:40:38;18.20;99.90
15341;DHT22;7770;52.158;5.372;2023-07-22T06:43:24;18.50;99.90
15341;DHT22;7770;52.158;5.372;2023-07-22T06:46:10;18.50;99.90
15341;DHT22;7770;52.158;5.372;2023-07-22T06:48:56;18.60;99.90
15341;DHT22;7770;52.158;5.372;2023-07-22T06:51:42;18.50;99.90
15341;DHT22;7770;52.158;5.372;2023-07-22T06:54:28;18.70;99.90
15341;DHT22;7770;52.158;5.372;2023-07-22T06:57:15;18.90;99.90
15341;DHT22;7770;52.158;5.372;2023-07-22T07:00:01;19.20;99.90
15341;DHT22;7770;52.158;5.372;2023-07-22T07:02:47;19.30;99.90
15341;DHT22;7770;52.158;5.372;2023-07-22T07:05:33;19.40;99.90
15341;DHT22;7770;52.158;5.372;2023-07-22T07:08:21;19.50;99.90
15341;DHT22;7770;52.158;5.372;2023-07-22T07:11:07;19.60;99.90
15341;DHT22;7770;52.158;5.372;2023-07-22T07:13:53;19.60;99.90
15341;DHT22;7770;52.158;5.372;2023-07-22T07:16:39;19.60;99.90
15341;DHT22;7770;52.158;5.372;2023-07-22T07:19:26;19.50;99.90
15341;DHT22;7770;52.158;5.372;2023-07-22T07:22:12;19.50;99.90
15341;DHT22;7770;52.158;5.372;2023-07-22T07:24:58;19.90;99.90
15341;DHT22;7770;52.158;5.372;2023-07-22T07:27:44;20.20;99.90
15341;DHT22;7770;52.158;5.372;2023-07-22T07:30:31;20.10;99.90
15341;DHT22;7770;52.158;5.372;2023-07-22T07:33:17;20.10;99.90
15341;DHT22;7770;52.158;5.372;2023-07-22T07:36:04;19.60;99.90
15341;DHT22;7770;52.158;5.372;2023-07-22T07:38:50;19.50;99.90
15341;DHT22;7770;52.158;5.372;2023-07-22T07:41:36;19.20;99.90
15341;DHT22;7770;52.158;5.372;2023-07-22T07:44:23;19.50;99.90
15341;DHT22;7770;52.158;5.372;2023-07-22T07:47:09;19.90;99.90
15341;DHT22;7770;52.158;5.372;2023-07-22T07:49:55;19.90;99.90
15341;DHT22;7770;52.158;5.372;2023-07-22T07:52:41;20.00;99.90
15341;DHT22;7770;52.158;5.372;2023-07-22T07:55:27;20.20;99.90
15341;DHT22;7770;52.158;5.372;2023-07-22T07:58:13;20.40;99.90
15341;DHT22;7770;52.158;5.372;2023-07-22T08:00:59;20.50;99.90
15341;DHT22;7770;52.158;5.372;2023-07-22T08:03:45;20.60;99.90
15341;DHT22;7770;52.158;5.372;2023-07-22T08:06:32;20.50;99.90
15341;DHT22;7770;52.158;5.372;2023-07-22T08:09:18;20.70;99.90
15341;DHT22;7770;52.158;5.372;2023-07-22T08:12:05;21.10;99.90
15341;DHT22;7770;52.158;5.372;2023-07-22T08:14:53;21.80;99.90
15341;DHT22;7770;52.158;5.372;2023-07-22T08:17:39;22.40;99.90
15341;DHT22;7770;52.158;5.372;2023-07-22T08:20:25;23.00;99.90
15341;DHT22;7770;52.158;5.372;2023-07-22T08:23:11;24.10;99.90
15341;DHT22;7770;52.158;5.372;2023-07-22T08:25:57;24.30;99.90
15341;DHT22;7770;52.158;5.372;2023-07-22T08:28:43;24.30;99.90
15341;DHT22;7770;52.158;5.372;2023-07-22T08:31:29;24.00;99.90
15341;DHT22;7770;52.158;5.372;2023-07-22T08:34:15;24.00;99.90
15341;DHT22;7770;52.158;5.372;2023-07-22T08:37:02;22.90;99.90
15341;DHT22;7770;52.158;5.372;2023-07-22T08:39:48;22.50;99.90
15341;DHT22;7770;52.158;5.372;2023-07-22T08:42:35;22.30;99.90
15341;DHT22;7770;52.158;5.372;2023-07-22T08:45:26;22.40;99.90
15341;DHT22;7770;52.158;5.372;2023-07-22T08:48:17;22.50;99.90
15341;DHT22;7770;52.158;5.372;2023-07-22T08:51:16;23.00;99.90
15341;DHT22;7770;52.158;5.372;2023-07-22T08:54:03;22.50;99.90
15341;DHT22;7770;52.158;5.372;2023-07-22T08:56:49;22.90;99.90
15341;DHT22;7770;52.158;5.372;2023-07-22T08:59:36;23.00;99.90
15341;DHT22;7770;52.158;5.372;2023-07-22T09:02:24;22.80;99.90
15341;DHT22;7770;52.158;5.372;2023-07-22T09:05:10;22.70;99.90
15341;DHT22;7770;52.158;5.372;2023-07-22T09:07:57;22.50;99.90
15341;DHT22;7770;52.158;5.372;2023-07-22T09:10:43;22.20;99.90
15341;DHT22;7770;52.158;5.372;2023-07-22T09:13:30;22.50;99.90
15341;DHT22;7770;52.158;5.372;2023-07-22T09:16:17;22.70;99.90
15341;DHT22;7770;52.158;5.372;2023-07-22T09:19:04;22.70;99.90
15341;DHT22;7770;52.158;5.372;2023-07-22T09:21:51;22.60;99.90
15341;DHT22;7770;52.158;5.372;2023-07-22T09:24:37;22.80;99.90
15341;DHT22;7770;52.158;5.372;2023-07-22T09:27:33;22.50;99.90
15341;DHT22;7770;52.158;5.372;2023-07-22T09:30:22;22.20;99.90
15341;DHT22;7770;52.158;5.372;2023-07-22T09:33:22;22.10;99.90
15341;DHT22;7770;52.158;5.372;2023-07-22T09:36:10;21.90;99.90
15341;DHT22;7770;52.158;5.372;2023-07-22T09:39:00;22.10;99.90
15341;DHT22;7770;52.158;5.372;2023-07-22T09:41:50;22.00;99.90
15341;DHT22;7770;52.158;5.372;2023-07-22T09:44:38;21.80;99.90
15341;DHT22;7770;52.158;5.372;2023-07-22T09:47:24;22.00;99.90
15341;DHT22;7770;52.158;5.372;2023-07-22T09:50:14;22.00;99.90
15341;DHT22;7770;52.158;5.372;2023-07-22T09:53:04;21.90;99.90
15341;DHT22;7770;52.158;5.372;2023-07-22T09:55:52;21.80;99.90
15341;DHT22;7770;52.158;5.372;2023-07-22T09:58:39;21.40;99.90
15341;DHT22;7770;52.158;5.372;2023-07-22T10:01:26;21.30;99.90
15341;DHT22;7770;52.158;5.372;2023-07-22T10:04:16;21.30;99.90
15341;DHT22;7770;52.158;5.372;2023-07-22T10:07:03;21.40;99.90
15341;DHT22;7770;52.158;5.372;2023-07-22T10:09:54;21.40;99.90
15341;DHT22;7770;52.158;5.372;2023-07-22T10:12:41;21.50;99.90
15341;DHT22;7770;52.158;5.372;2023-07-22T10:15:32;21.20;99.90
15341;DHT22;7770;52.158;5.372;2023-07-22T10:18:21;21.20;99.90
15341;DHT22;7770;52.158;5.372;2023-07-22T10:21:09;21.40;99.90
15341;DHT22;7770;52.158;5.372;2023-07-22T10:23:55;21.60;99.90
15341;DHT22;7770;52.158;5.372;2023-07-22T10:26:42;21.90;99.90
15341;DHT22;7770;52.158;5.372;2023-07-22T10:29:28;22.20;99.90
15341;DHT22;7770;52.158;5.372;2023-07-22T10:32:15;22.50;99.90
15341;DHT22;7770;52.158;5.372;2023-07-22T10:35:02;22.50;99.90
15341;DHT22;7770;52.158;5.372;2023-07-22T10:37:49;22.20;99.90
15341;DHT22;7770;52.158;5.372;2023-07-22T10:40:53;22.10;99.90
15341;DHT22;7770;52.158;5.372;2023-07-22T10:43:40;22.00;99.90
15341;DHT22;7770;52.158;5.372;2023-07-22T10:46:38;21.90;99.90
15341;DHT22;7770;52.158;5.372;2023-07-22T10:49:43;21.80;99.90
15341;DHT22;7770;52.158;5.372;2023-07-22T10:52:42;21.30;99.90
15341;DHT22;7770;52.158;5.372;2023-07-22T10:55:29;21.10;99.90
15341;DHT22;7770;52.158;5.372;2023-07-22T10:58:15;21.20;99.90
15341;DHT22;7770;52.158;5.372;2023-07-22T11:01:24;21.10;99.90
15341;DHT22;7770;52.158;5.372;2023-07-22T11:04:26;21.00;99.90
15341;DHT22;7770;52.158;5.372;2023-07-22T11:07:42;21.00;99.90
15341;DHT22;7770;52.158;5.372;2023-07-22T11:10:29;20.60;99.90
15341;DHT22;7770;52.158;5.372;2023-07-22T11:13:15;20.40;99.90
15341;DHT22;7770;52.158;5.372;2023-07-22T11:16:01;20.00;99.90
15341;DHT22;7770;52.158;5.372;2023-07-22T11:18:47;19.60;99.90
15341;DHT22;7770;52.158;5.372;2023-07-22T11:21:33;19.60;99.90
15341;DHT22;7770;52.158;5.372;2023-07-22T11:24:20;19.90;99.90
15341;DHT22;7770;52.158;5.372;2023-07-22T11:27:08;20.10;99.90
15341;DHT22;7770;52.158;5.372;2023-07-22T11:29:57;20.30;99.90
15341;DHT22;7770;52.158;5.372;2023-07-22T11:32:44;20.30;99.90
15341;DHT22;7770;52.158;5.372;2023-07-22T11:35:30;20.20;99.90
15341;DHT22;7770;52.158;5.372;2023-07-22T11:38:16;19.80;99.90
15341;DHT22;7770;52.158;5.372;2023-07-22T11:41:02;19.40;99.90
15341;DHT22;7770;52.158;5.372;2023-07-22T11:43:48;19.30;99.90
15341;DHT22;7770;52.158;5.372;2023-07-22T11:46:35;19.20;99.90
15341;DHT22;7770;52.158;5.372;2023-07-22T11:52:22;19.70;99.90
15341;DHT22;7770;52.158;5.372;2023-07-22T11:55:08;20.00;99.90
15341;DHT22;7770;52.158;5.372;2023-07-22T11:57:55;20.00;99.90
15341;DHT22;7770;52.158;5.372;2023-07-22T12:00:44;19.90;99.90
15341;DHT22;7770;52.158;5.372;2023-07-22T12:03:33;19.60;99.90
15341;DHT22;7770;52.158;5.372;2023-07-22T12:06:19;19.40;99.90
15341;DHT22;7770;52.158;5.372;2023-07-22T12:09:07;19.20;99.90
15341;DHT22;7770;52.158;5.372;2023-07-22T12:11:56;18.90;99.90
15341;DHT22;7770;52.158;5.372;2023-07-22T12:14:44;18.40;99.90
15341;DHT22;7770;52.158;5.372;2023-07-22T12:17:32;18.10;99.90
15341;DHT22;7770;52.158;5.372;2023-07-22T12:20:31;18.10;99.90
15341;DHT22;7770;52.158;5.372;2023-07-22T12:23:19;18.00;99.90
15341;DHT22;7770;52.158;5.372;2023-07-22T12:26:07;18.00;99.90
15341;DHT22;7770;52.158;5.372;2023-07-22T12:28:53;18.00;99.90
15341;DHT22;7770;52.158;5.372;2023-07-22T12:31:39;18.00;99.90
15341;DHT22;7770;52.158;5.372;2023-07-22T12:34:25;18.00;99.90
15341;DHT22;7770;52.158;5.372;2023-07-22T12:37:11;18.00;99.90
15341;DHT22;7770;52.158;5.372;2023-07-22T12:39:57;17.90;99.90
15341;DHT22;7770;52.158;5.372;2023-07-22T12:42:43;17.80;99.90
15341;DHT22;7770;52.158;5.372;2023-07-22T12:45:29;17.70;99.90
15341;DHT22;7770;52.158;5.372;2023-07-22T12:48:16;17.70;99.90
15341;DHT22;7770;52.158;5.372;2023-07-22T12:51:02;17.50;99.90
15341;DHT22;7770;52.158;5.372;2023-07-22T12:53:48;17.40;99.90
15341;DHT22;7770;52.158;5.372;2023-07-22T12:56:34;17.30;99.90
15341;DHT22;7770;52.158;5.372;2023-07-22T12:59:20;17.20;99.90
15341;DHT22;7770;52.158;5.372;2023-07-22T13:02:06;17.20;99.90
15341;DHT22;7770;52.158;5.372;2023-07-22T13:04:52;17.00;99.90
15341;DHT22;7770;52.158;5.372;2023-07-22T13:07:39;17.00;99.90
15341;DHT22;7770;52.158;5.372;2023-07-22T13:10:25;17.00;99.90
15341;DHT22;7770;52.158;5.372;2023-07-22T13:13:11;16.90;99.90
15341;DHT22;7770;52.158;5.372;2023-07-22T13:15:57;16.80;99.90
15341;DHT22;7770;52.158;5.372;2023-07-22T13:18:43;16.80;99.90
15341;DHT22;7770;52.158;5.372;2023-07-22T13:21:29;16.80;99.90
15341;DHT22;7770;52.158;5.372;2023-07-22T13:24:15;16.90;99.90
15341;DHT22;7770;52.158;5.372;2023-07-22T13:27:01;16.90;99.90
15341;DHT22;7770;52.158;5.372;2023-07-22T13:29:48;16.90;99.90
15341;DHT22;7770;52.158;5.372;2023-07-22T13:32:34;17.00;99.90
15341;DHT22;7770;52.158;5.372;2023-07-22T13:35:20;17.10;99.90
15341;DHT22;7770;52.158;5.372;2023-07-22T13:38:06;17.20;99.90
15341;DHT22;7770;52.158;5.372;2023-07-22T13:40:52;17.30;99.90
15341;DHT22;7770;52.158;5.372;2023-07-22T13:43:38;17.30;99.90
15341;DHT22;7770;52.158;5.372;2023-07-22T13:46:24;17.30;99.90
15341;DHT22;7770;52.158;5.372;2023-07-22T13:49:10;17.30;99.90
15341;DHT22;7770;52.158;5.372;2023-07-22T13:51:56;17.30;99.90
15341;DHT22;7770;52.158;5.372;2023-07-22T13:54:42;17.40;99.90
15341;DHT22;7770;52.158;5.372;2023-07-22T13:57:28;17.50;99.90
15341;DHT22;7770;52.158;5.372;2023-07-22T14:00:14;17.60;99.90
15341;DHT22;7770;52.158;5.372;2023-07-22T14:03:00;17.70;99.90
15341;DHT22;7770;52.158;5.372;2023-07-22T14:05:46;17.90;99.90
15341;DHT22;7770;52.158;5.372;2023-07-22T14:08:33;17.90;99.90
15341;DHT22;7770;52.158;5.372;2023-07-22T14:11:19;17.90;99.90
15341;DHT22;7770;52.158;5.372;2023-07-22T14:14:05;17.90;99.90
15341;DHT22;7770;52.158;5.372;2023-07-22T14:16:52;17.90;99.90
15341;DHT22;7770;52.158;5.372;2023-07-22T14:19:38;18.00;99.90
15341;DHT22;7770;52.158;5.372;2023-07-22T14:22:24;18.10;99.90
15341;DHT22;7770;52.158;5.372;2023-07-22T14:25:10;18.20;99.90
15341;DHT22;7770;52.158;5.372;2023-07-22T14:27:56;18.30;99.90
15341;DHT22;7770;52.158;5.372;2023-07-22T14:30:42;18.40;99.90
15341;DHT22;7770;52.158;5.372;2023-07-22T14:33:28;18.60;99.90
15341;DHT22;7770;52.158;5.372;2023-07-22T14:36:15;18.70;99.90
15341;DHT22;7770;52.158;5.372;2023-07-22T14:39:01;18.80;99.90
15341;DHT22;7770;52.158;5.372;2023-07-22T14:41:47;18.90;99.90
15341;DHT22;7770;52.158;5.372;2023-07-22T14:44:33;19.00;99.90
15341;DHT22;7770;52.158;5.372;2023-07-22T14:47:19;19.00;99.90
15341;DHT22;7770;52.158;5.372;2023-07-22T14:50:05;19.10;99.90
15341;DHT22;7770;52.158;5.372;2023-07-22T14:52:51;19.10;99.90
15341;DHT22;7770;52.158;5.372;2023-07-22T14:55:37;19.10;99.90
15341;DHT22;7770;52.158;5.372;2023-07-22T14:58:23;19.00;99.90
15341;DHT22;7770;52.158;5.372;2023-07-22T15:01:09;19.00;99.90
15341;DHT22;7770;52.158;5.372;2023-07-22T15:03:55;19.00;99.90
15341;DHT22;7770;52.158;5.372;2023-07-22T15:06:41;18.90;99.90
15341;DHT22;7770;52.158;5.372;2023-07-22T15:09:27;18.80;99.90
15341;DHT22;7770;52.158;5.372;2023-07-22T15:12:13;18.80;99.90
15341;DHT22;7770;52.158;5.372;2023-07-22T15:14:59;18.70;99.90
15341;DHT22;7770;52.158;5.372;2023-07-22T15:17:46;18.60;99.90
15341;DHT22;7770;52.158;5.372;2023-07-22T15:20:32;18.50;99.90
15341;DHT22;7770;52.158;5.372;2023-07-22T15:23:19;18.40;99.90
15341;DHT22;7770;52.158;5.372;2023-07-22T15:26:05;18.40;99.90
15341;DHT22;7770;52.158;5.372;2023-07-22T15:28:52;18.30;99.90
15341;DHT22;7770;52.158;5.372;2023-07-22T15:31:38;18.20;99.90
15341;DHT22;7770;52.158;5.372;2023-07-22T15:34:27;18.20;99.90
15341;DHT22;7770;52.158;5.372;2023-07-22T15:37:13;18.20;99.90
15341;DHT22;7770;52.158;5.372;2023-07-22T15:40:00;18.20;99.90
15341;DHT22;7770;52.158;5.372;2023-07-22T15:42:46;18.30;99.90
15341;DHT22;7770;52.158;5.372;2023-07-22T15:45:32;18.40;99.90
15341;DHT22;7770;52.158;5.372;2023-07-22T15:48:18;18.40;99.90
15341;DHT22;7770;52.158;5.372;2023-07-22T15:51:04;18.40;99.90
15341;DHT22;7770;52.158;5.372;2023-07-22T15:53:50;18.50;99.90
15341;DHT22;7770;52.158;5.372;2023-07-22T15:56:36;18.50;99.90
15341;DHT22;7770;52.158;5.372;2023-07-22T15:59:22;18.60;99.90
15341;DHT22;7770;52.158;5.372;2023-07-22T16:02:08;18.70;99.90
15341;DHT22;7770;52.158;5.372;2023-07-22T16:04:54;18.90;99.90
15341;DHT22;7770;52.158;5.372;2023-07-22T16:07:40;19.10;99.90
15341;DHT22;7770;52.158;5.372;2023-07-22T16:10:27;19.30;99.90
15341;DHT22;7770;52.158;5.372;2023-07-22T16:13:13;19.40;99.90
15341;DHT22;7770;52.158;5.372;2023-07-22T16:15:59;19.30;99.90
15341;DHT22;7770;52.158;5.372;2023-07-22T16:18:45;19.30;99.90
15341;DHT22;7770;52.158;5.372;2023-07-22T16:21:31;19.20;99.90
15341;DHT22;7770;52.158;5.372;2023-07-22T16:24:17;19.30;99.90
15341;DHT22;7770;52.158;5.372;2023-07-22T16:27:03;19.50;99.90
15341;DHT22;7770;52.158;5.372;2023-07-22T16:29:49;19.70;99.90
15341;DHT22;7770;52.158;5.372;2023-07-22T16:32:37;19.90;99.90
15341;DHT22;7770;52.158;5.372;2023-07-22T16:35:23;20.00;99.90
15341;DHT22;7770;52.158;5.372;2023-07-22T16:38:09;20.00;99.90
15341;DHT22;7770;52.158;5.372;2023-07-22T16:40:55;20.10;99.90
15341;DHT22;7770;52.158;5.372;2023-07-22T16:43:47;20.10;99.90
15341;DHT22;7770;52.158;5.372;2023-07-22T16:46:34;19.90;99.90
15341;DHT22;7770;52.158;5.372;2023-07-22T16:49:20;19.90;99.90
15341;DHT22;7770;52.158;5.372;2023-07-22T16:52:06;19.90;99.90
15341;DHT22;7770;52.158;5.372;2023-07-22T16:54:52;19.70;99.90
15341;DHT22;7770;52.158;5.372;2023-07-22T16:57:38;19.70;99.90
15341;DHT22;7770;52.158;5.372;2023-07-22T17:00:28;19.70;99.90
15341;DHT22;7770;52.158;5.372;2023-07-22T17:03:15;19.70;99.90
15341;DHT22;7770;52.158;5.372;2023-07-22T17:06:02;19.60;99.90
15341;DHT22;7770;52.158;5.372;2023-07-22T17:08:48;19.60;99.90
15341;DHT22;7770;52.158;5.372;2023-07-22T17:11:33;19.50;99.90
15341;DHT22;7770;52.158;5.372;2023-07-22T17:14:20;19.50;99.90
15341;DHT22;7770;52.158;5.372;2023-07-22T17:17:06;19.50;99.90
15341;DHT22;7770;52.158;5.372;2023-07-22T17:19:52;19.40;99.90
15341;DHT22;7770;52.158;5.372;2023-07-22T17:22:38;19.30;99.90
15341;DHT22;7770;52.158;5.372;2023-07-22T17:25:24;19.20;99.90
15341;DHT22;7770;52.158;5.372;2023-07-22T17:28:10;19.20;99.90
15341;DHT22;7770;52.158;5.372;2023-07-22T17:30:59;19.20;99.90
15341;DHT22;7770;52.158;5.372;2023-07-22T17:33:45;19.20;99.90
15341;DHT22;7770;52.158;5.372;2023-07-22T17:36:31;19.20;99.90
15341;DHT22;7770;52.158;5.372;2023-07-22T17:39:17;19.10;99.90
15341;DHT22;7770;52.158;5.372;2023-07-22T17:42:04;19.00;99.90
15341;DHT22;7770;52.158;5.372;2023-07-22T17:44:50;18.90;99.90
15341;DHT22;7770;52.158;5.372;2023-07-22T17:47:36;18.80;99.90
15341;DHT22;7770;52.158;5.372;2023-07-22T17:50:22;18.60;99.90
15341;DHT22;7770;52.158;5.372;2023-07-22T17:53:08;18.50;99.90